sensor_id;sensor_type;location;lat;lon;timestamp;temperature;humidity
19164;DHT22;9714;51.208;4.242;2023-04-01T00:02:07;10.80;99.90
19164;DHT22;9714;51.208;4.242;2023-04-01T00:04:35;10.70;99.90
19164;DHT22;9714;51.208;4.242;2023-04-01T00:07:02;10.70;99.90
19164;DHT22;9714;51.208;4.242;2023-04-01T00:09:30;10.70;99.90
19164;DHT22;9714;51.208;4.242;2023-04-01T00:11:57;10.80;99.90
19164;DHT22;9714;51.208;4.242;2023-04-01T00:14:26;10.80;99.90
19164;DHT22;9714;51.208;4.242;2023-04-01T00:16:53;10.90;99.90
19164;DHT22;9714;51.208;4.242;2023-04-01T00:19:20;11.00;99.90
19164;DHT22;9714;51.208;4.242;2023-04-01T00:21:48;11.00;99.90
19164;DHT22;9714;51.208;4.242;2023-04-01T00:24:15;10.80;99.90
19164;DHT22;9714;51.208;4.242;2023-04-01T00:26:43;10.80;99.90
19164;DHT22;9714;51.208;4.242;2023-04-01T00:29:10;10.80;99.90
19164;DHT22;9714;51.208;4.242;2023-04-01T00:31:37;10.90;99.90
19164;DHT22;9714;51.208;4.242;2023-04-01T00:34:04;10.80;99.90
19164;DHT22;9714;51.208;4.242;2023-04-01T00:36:31;10.90;99.90
19164;DHT22;9714;51.208;4.242;2023-04-01T00:38:59;10.90;99.90
19164;DHT22;9714;51.208;4.242;2023-04-01T00:41:26;10.80;99.90
19164;DHT22;9714;51.208;4.242;2023-04-01T00:44:14;10.80;99.90
19164;DHT22;9714;51.208;4.242;2023-04-01T00:46:43;10.90;99.90
19164;DHT22;9714;51.208;4.242;2023-04-01T00:49:10;10.90;99.90
19164;DHT22;9714;51.208;4.242;2023-04-01T00:51:41;10.90;99.90
19164;DHT22;9714;51.208;4.242;2023-04-01T00:54:16;10.90;99.90
19164;DHT22;9714;51.208;4.242;2023-04-01T00:56:48;10.80;99.90
19164;DHT22;9714;51.208;4.242;2023-04-01T00:59:22;10.90;99.90
19164;DHT22;9714;51.208;4.242;2023-04-01T01:01:49;10.90;99.90
19164;DHT22;9714;51.208;4.242;2023-04-01T01:04:31;10.90;99.90
19164;DHT22;9714;51.208;4.242;2023-04-01T01:07:07;10.90;99.90
19164;DHT22;9714;51.208;4.242;2023-04-01T01:09:45;10.80;99.90
19164;DHT22;9714;51.208;4.242;2023-04-01T01:12:17;10.70;99.90
19164;DHT22;9714;51.208;4.242;2023-04-01T01:14:55;10.70;99.90
19164;DHT22;9714;51.208;4.242;2023-04-01T01:17:33;10.70;99.90
19164;DHT22;9714;51.208;4.242;2023-04-01T01:23:40;10.60;99.90
19164;DHT22;9714;51.208;4.242;2023-04-01T01:26:42;10.60;99.90
19164;DHT22;9714;51.208;4.242;2023-04-01T01:29:22;10.60;99.90
19164;DHT22;9714;51.208;4.242;2023-04-01T01:31:58;10.60;99.90
19164;DHT22;9714;51.208;4.242;2023-04-01T01:34:35;10.60;99.90
19164;DHT22;9714;51.208;4.242;2023-04-01T01:37:11;10.60;99.90
19164;DHT22;9714;51.208;4.242;2023-04-01T01:39:40;10.60;99.90
19164;DHT22;9714;51.208;4.242;2023-04-01T01:42:13;10.50;99.90
19164;DHT22;9714;51.208;4.242;2023-04-01T01:44:42;10.50;99.90
19164;DHT22;9714;51.208;4.242;2023-04-01T01:47:11;10.50;99.90
19164;DHT22;9714;51.208;4.242;2023-04-01T01:49:39;10.50;99.90
19164;DHT22;9714;51.208;4.242;2023-04-01T01:52:08;10.60;99.90
19164;DHT22;9714;51.208;4.242;2023-04-01T01:54:35;10.50;99.90
19164;DHT22;9714;51.208;4.242;2023-04-01T01:57:06;10.50;99.90
19164;DHT22;9714;51.208;4.242;2023-04-01T01:59:35;10.50;99.90
19164;DHT22;9714;51.208;4.242;2023-04-01T02:02:04;10.60;99.90
19164;DHT22;9714;51.208;4.242;2023-04-01T02:04:34;10.50;99.90
19164;DHT22;9714;51.208;4.242;2023-04-01T02:07:08;10.50;99.90
19164;DHT22;9714;51.208;4.242;2023-04-01T02:09:38;10.40;99.90
19164;DHT22;9714;51.208;4.242;2023-04-01T02:12:06;10.40;99.90
19164;DHT22;9714;51.208;4.242;2023-04-01T02:14:39;10.50;99.90
19164;DHT22;9714;51.208;4.242;2023-04-01T02:17:08;10.40;99.90
19164;DHT22;9714;51.208;4.242;2023-04-01T02:19:38;10.40;99.90
19164;DHT22;9714;51.208;4.242;2023-04-01T02:22:11;10.40;99.90
19164;DHT22;9714;51.208;4.242;2023-04-01T02:24:40;10.30;99.90
19164;DHT22;9714;51.208;4.242;2023-04-01T02:27:09;10.40;99.90
19164;DHT22;9714;51.208;4.242;2023-04-01T02:29:36;10.40;99.90
19164;DHT22;9714;51.208;4.242;2023-04-01T02:32:04;10.40;99.90
19164;DHT22;9714;51.208;4.242;2023-04-01T02:34:32;10.30;99.90
19164;DHT22;9714;51.208;4.242;2023-04-01T02:37:00;10.40;99.90
19164;DHT22;9714;51.208;4.242;2023-04-01T02:39:29;10.30;99.90
19164;DHT22;9714;51.208;4.242;2023-04-01T02:41:57;10.30;99.90
19164;DHT22;9714;51.208;4.242;2023-04-01T02:44:24;10.30;99.90
19164;DHT22;9714;51.208;4.242;2023-04-01T02:46:51;10.30;99.90
19164;DHT22;9714;51.208;4.242;2023-04-01T02:49:18;10.30;99.90
19164;DHT22;9714;51.208;4.242;2023-04-01T02:51:45;10.20;99.90
19164;DHT22;9714;51.208;4.242;2023-04-01T02:54:12;10.20;99.90
19164;DHT22;9714;51.208;4.242;2023-04-01T02:56:41;10.40;99.90
19164;DHT22;9714;51.208;4.242;2023-04-01T02:59:08;10.40;99.90
19164;DHT22;9714;51.208;4.242;2023-04-01T03:01:34;10.30;99.90
19164;DHT22;9714;51.208;4.242;2023-04-01T03:04:01;10.30;99.90
19164;DHT22;9714;51.208;4.242;2023-04-01T03:06:28;10.30;99.90
19164;DHT22;9714;51.208;4.242;2023-04-01T03:08:56;10.30;99.90
19164;DHT22;9714;51.208;4.242;2023-04-01T03:11:23;10.40;99.90
19164;DHT22;9714;51.208;4.242;2023-04-01T03:13:52;10.30;99.90
19164;DHT22;9714;51.208;4.242;2023-04-01T03:16:19;10.40;99.90
19164;DHT22;9714;51.208;4.242;2023-04-01T03:18:46;10.40;99.90
19164;DHT22;9714;51.208;4.242;2023-04-01T03:21:15;10.40;99.90
19164;DHT22;9714;51.208;4.242;2023-04-01T03:23:43;10.40;99.90
19164;DHT22;9714;51.208;4.242;2023-04-01T03:26:10;10.30;99.90
19164;DHT22;9714;51.208;4.242;2023-04-01T03:28:37;10.30;99.90
19164;DHT22;9714;51.208;4.242;2023-04-01T03:31:05;10.40;99.90
19164;DHT22;9714;51.208;4.242;2023-04-01T03:33:33;10.40;99.90
19164;DHT22;9714;51.208;4.242;2023-04-01T03:35:59;10.40;99.90
19164;DHT22;9714;51.208;4.242;2023-04-01T03:38:27;10.30;99.90
19164;DHT22;9714;51.208;4.242;2023-04-01T03:40:54;10.30;99.90
19164;DHT22;9714;51.208;4.242;2023-04-01T03:43:21;10.30;99.90
19164;DHT22;9714;51.208;4.242;2023-04-01T03:45:49;10.30;99.90
19164;DHT22;9714;51.208;4.242;2023-04-01T03:48:18;10.30;99.90
19164;DHT22;9714;51.208;4.242;2023-04-01T03:50:45;10.40;99.90
19164;DHT22;9714;51.208;4.242;2023-04-01T03:53:12;10.20;99.90
19164;DHT22;9714;51.208;4.242;2023-04-01T03:55:39;10.30;99.90
19164;DHT22;9714;51.208;4.242;2023-04-01T03:58:07;10.20;99.90
19164;DHT22;9714;51.208;4.242;2023-04-01T04:00:34;10.30;99.90
19164;DHT22;9714;51.208;4.242;2023-04-01T04:03:01;10.30;99.90
19164;DHT22;9714;51.208;4.242;2023-04-01T04:05:30;10.20;99.90
19164;DHT22;9714;51.208;4.242;2023-04-01T04:07:57;10.30;99.90
19164;DHT22;9714;51.208;4.242;2023-04-01T04:10:24;10.30;99.90
19164;DHT22;9714;51.208;4.242;2023-04-01T04:12:51;10.20;99.90
19164;DHT22;9714;51.208;4.242;2023-04-01T04:15:19;10.30;99.90
19164;DHT22;9714;51.208;4.242;2023-04-01T04:17:46;10.20;99.90
19164;DHT22;9714;51.208;4.242;2023-04-01T04:20:13;10.30;99.90
19164;DHT22;9714;51.208;4.242;2023-04-01T04:22:42;10.20;99.90
19164;DHT22;9714;51.208;4.242;2023-04-01T04:25:09;10.30;99.90
19164;DHT22;9714;51.208;4.242;2023-04-01T04:27:36;10.30;99.90
19164;DHT22;9714;51.208;4.242;2023-04-01T04:30:05;10.30;99.90
19164;DHT22;9714;51.208;4.242;2023-04-01T04:32:32;10.20;99.90
19164;DHT22;9714;51.208;4.242;2023-04-01T04:34:59;10.20;99.90
19164;DHT22;9714;51.208;4.242;2023-04-01T04:37:26;10.20;99.90
19164;DHT22;9714;51.208;4.242;2023-04-01T04:39:55;10.20;99.90
19164;DHT22;9714;51.208;4.242;2023-04-01T04:42:21;10.30;99.90
19164;DHT22;9714;51.208;4.242;2023-04-01T04:44:48;10.20;99.90
19164;DHT22;9714;51.208;4.242;2023-04-01T04:47:15;10.20;99.90
19164;DHT22;9714;51.208;4.242;2023-04-01T04:49:42;10.20;99.90
19164;DHT22;9714;51.208;4.242;2023-04-01T04:52:09;10.10;99.90
19164;DHT22;9714;51.208;4.242;2023-04-01T04:54:36;10.10;99.90
19164;DHT22;9714;51.208;4.242;2023-04-01T04:57:05;10.20;99.90
19164;DHT22;9714;51.208;4.242;2023-04-01T04:59:32;10.20;99.90
19164;DHT22;9714;51.208;4.242;2023-04-01T05:01:58;10.10;99.90
19164;DHT22;9714;51.208;4.242;2023-04-01T05:04:25;10.20;99.90
19164;DHT22;9714;51.208;4.242;2023-04-01T05:06:52;10.20;99.90
19164;DHT22;9714;51.208;4.242;2023-04-01T05:09:19;10.10;99.90
19164;DHT22;9714;51.208;4.242;2023-04-01T05:11:47;10.20;99.90
19164;DHT22;9714;51.208;4.242;2023-04-01T05:14:16;10.20;99.90
19164;DHT22;9714;51.208;4.242;2023-04-01T05:16:43;10.10;99.90
19164;DHT22;9714;51.208;4.242;2023-04-01T05:19:10;10.20;99.90
19164;DHT22;9714;51.208;4.242;2023-04-01T05:21:37;10.30;99.90
19164;DHT22;9714;51.208;4.242;2023-04-01T05:24:07;10.30;99.90
19164;DHT22;9714;51.208;4.242;2023-04-01T05:26:35;10.20;99.90
19164;DHT22;9714;51.208;4.242;2023-04-01T05:29:02;10.20;99.90
19164;DHT22;9714;51.208;4.242;2023-04-01T05:31:30;10.20;99.90
19164;DHT22;9714;51.208;4.242;2023-04-01T05:33:57;10.10;99.90
19164;DHT22;9714;51.208;4.242;2023-04-01T05:36:24;10.10;99.90
19164;DHT22;9714;51.208;4.242;2023-04-01T05:38:54;10.20;99.90
19164;DHT22;9714;51.208;4.242;2023-04-01T05:41:22;10.20;99.90
19164;DHT22;9714;51.208;4.242;2023-04-01T05:43:48;10.20;99.90
19164;DHT22;9714;51.208;4.242;2023-04-01T05:46:16;10.20;99.90
19164;DHT22;9714;51.208;4.242;2023-04-01T05:48:44;10.20;99.90
19164;DHT22;9714;51.208;4.242;2023-04-01T05:51:12;10.20;99.90
19164;DHT22;9714;51.208;4.242;2023-04-01T05:53:40;10.20;99.90
19164;DHT22;9714;51.208;4.242;2023-04-01T05:56:07;10.20;99.90
19164;DHT22;9714;51.208;4.242;2023-04-01T05:58:35;10.30;99.90
19164;DHT22;9714;51.208;4.242;2023-04-01T06:01:04;10.40;99.90
19164;DHT22;9714;51.208;4.242;2023-04-01T06:03:31;10.30;99.90
19164;DHT22;9714;51.208;4.242;2023-04-01T06:06:00;10.30;99.90
19164;DHT22;9714;51.208;4.242;2023-04-01T06:08:28;10.30;99.90
19164;DHT22;9714;51.208;4.242;2023-04-01T06:11:04;10.20;99.90
19164;DHT22;9714;51.208;4.242;2023-04-01T06:13:48;10.20;99.90
19164;DHT22;9714;51.208;4.242;2023-04-01T06:16:24;10.30;99.90
19164;DHT22;9714;51.208;4.242;2023-04-01T06:19:07;10.40;99.90
19164;DHT22;9714;51.208;4.242;2023-04-01T06:24:49;10.60;99.90
19164;DHT22;9714;51.208;4.242;2023-04-01T06:27:29;10.60;99.90
19164;DHT22;9714;51.208;4.242;2023-04-01T06:30:10;10.70;99.90
19164;DHT22;9714;51.208;4.242;2023-04-01T06:33:00;10.60;99.90
19164;DHT22;9714;51.208;4.242;2023-04-01T06:35:48;10.40;99.90
19164;DHT22;9714;51.208;4.242;2023-04-01T06:38:42;10.40;99.90
19164;DHT22;9714;51.208;4.242;2023-04-01T06:41:33;10.50;99.90
19164;DHT22;9714;51.208;4.242;2023-04-01T06:44:12;10.40;99.90
19164;DHT22;9714;51.208;4.242;2023-04-01T06:46:45;10.50;99.90
19164;DHT22;9714;51.208;4.242;2023-04-01T06:49:33;10.40;99.90
19164;DHT22;9714;51.208;4.242;2023-04-01T06:52:09;10.40;99.90
19164;DHT22;9714;51.208;4.242;2023-04-01T06:54:44;10.40;99.90
19164;DHT22;9714;51.208;4.242;2023-04-01T06:57:20;10.50;99.90
19164;DHT22;9714;51.208;4.242;2023-04-01T06:59:52;10.50;99.90
19164;DHT22;9714;51.208;4.242;2023-04-01T07:02:28;10.60;99.90
19164;DHT22;9714;51.208;4.242;2023-04-01T07:04:58;10.50;99.90
19164;DHT22;9714;51.208;4.242;2023-04-01T07:07:31;10.50;99.90
19164;DHT22;9714;51.208;4.242;2023-04-01T07:10:05;10.40;99.90
19164;DHT22;9714;51.208;4.242;2023-04-01T07:12:43;10.50;99.90
19164;DHT22;9714;51.208;4.242;2023-04-01T07:15:16;10.40;99.90
19164;DHT22;9714;51.208;4.242;2023-04-01T07:17:52;10.60;99.90
19164;DHT22;9714;51.208;4.242;2023-04-01T07:20:23;10.70;99.90
19164;DHT22;9714;51.208;4.242;2023-04-01T07:22:54;10.60;99.90
19164;DHT22;9714;51.208;4.242;2023-04-01T07:25:27;10.70;99.90
19164;DHT22;9714;51.208;4.242;2023-04-01T07:28:00;10.60;99.90
19164;DHT22;9714;51.208;4.242;2023-04-01T07:30:33;10.70;99.90
19164;DHT22;9714;51.208;4.242;2023-04-01T07:33:15;10.80;99.90
19164;DHT22;9714;51.208;4.242;2023-04-01T07:35:47;10.70;99.90
19164;DHT22;9714;51.208;4.242;2023-04-01T07:38:23;10.70;99.90
19164;DHT22;9714;51.208;4.242;2023-04-01T07:41:06;10.80;99.90
19164;DHT22;9714;51.208;4.242;2023-04-01T07:43:57;10.70;99.90
19164;DHT22;9714;51.208;4.242;2023-04-01T07:46:41;10.90;99.90
19164;DHT22;9714;51.208;4.242;2023-04-01T07:49:28;10.80;99.90
19164;DHT22;9714;51.208;4.242;2023-04-01T07:52:01;10.80;99.90
19164;DHT22;9714;51.208;4.242;2023-04-01T07:54:41;10.80;99.90
19164;DHT22;9714;51.208;4.242;2023-04-01T07:57:29;10.80;99.90
19164;DHT22;9714;51.208;4.242;2023-04-01T08:00:06;10.70;99.90
19164;DHT22;9714;51.208;4.242;2023-04-01T08:02:52;10.80;99.90
19164;DHT22;9714;51.208;4.242;2023-04-01T08:05:25;10.80;99.90
19164;DHT22;9714;51.208;4.242;2023-04-01T08:08:00;11.00;99.90
19164;DHT22;9714;51.208;4.242;2023-04-01T08:10:35;11.00;99.90
19164;DHT22;9714;51.208;4.242;2023-04-01T08:13:09;11.00;99.90
19164;DHT22;9714;51.208;4.242;2023-04-01T08:15:46;11.10;99.90
19164;DHT22;9714;51.208;4.242;2023-04-01T08:18:26;11.00;99.90
19164;DHT22;9714;51.208;4.242;2023-04-01T08:20:58;10.90;99.90
19164;DHT22;9714;51.208;4.242;2023-04-01T08:23:28;11.00;99.90
19164;DHT22;9714;51.208;4.242;2023-04-01T08:26:06;11.00;99.90
19164;DHT22;9714;51.208;4.242;2023-04-01T08:28:43;10.90;99.90
19164;DHT22;9714;51.208;4.242;2023-04-01T08:31:17;10.90;99.90
19164;DHT22;9714;51.208;4.242;2023-04-01T08:33:46;11.10;99.90
19164;DHT22;9714;51.208;4.242;2023-04-01T08:36:16;11.20;99.90
19164;DHT22;9714;51.208;4.242;2023-04-01T08:38:46;11.20;99.90
19164;DHT22;9714;51.208;4.242;2023-04-01T08:41:33;11.30;99.90
19164;DHT22;9714;51.208;4.242;2023-04-01T08:44:29;11.20;99.90
19164;DHT22;9714;51.208;4.242;2023-04-01T08:47:32;11.20;99.90
19164;DHT22;9714;51.208;4.242;2023-04-01T08:50:31;11.40;99.90
19164;DHT22;9714;51.208;4.242;2023-04-01T08:53:06;11.20;99.90
19164;DHT22;9714;51.208;4.242;2023-04-01T08:55:46;11.20;99.90
19164;DHT22;9714;51.208;4.242;2023-04-01T09:01:26;11.30;99.90
19164;DHT22;9714;51.208;4.242;2023-04-01T09:07:11;11.20;99.90
19164;DHT22;9714;51.208;4.242;2023-04-01T09:09:53;11.20;99.90
19164;DHT22;9714;51.208;4.242;2023-04-01T09:14:10;11.20;99.90
19164;DHT22;9714;51.208;4.242;2023-04-01T09:19:20;11.30;99.90
19164;DHT22;9714;51.208;4.242;2023-04-01T09:22:13;11.20;99.90
19164;DHT22;9714;51.208;4.242;2023-04-01T09:25:21;11.40;99.90
19164;DHT22;9714;51.208;4.242;2023-04-01T09:28:05;11.50;99.90
19164;DHT22;9714;51.208;4.242;2023-04-01T09:42:42;11.60;99.90
19164;DHT22;9714;51.208;4.242;2023-04-01T09:45:28;11.80;99.90
19164;DHT22;9714;51.208;4.242;2023-04-01T09:51:02;11.70;99.90
19164;DHT22;9714;51.208;4.242;2023-04-01T09:53:48;11.50;99.90
19164;DHT22;9714;51.208;4.242;2023-04-01T10:15:11;11.60;99.90
19164;DHT22;9714;51.208;4.242;2023-04-01T10:21:22;11.80;99.90
19164;DHT22;9714;51.208;4.242;2023-04-01T10:24:13;11.60;99.90
19164;DHT22;9714;51.208;4.242;2023-04-01T10:27:10;11.50;99.90
19164;DHT22;9714;51.208;4.242;2023-04-01T10:30:04;11.40;99.90
19164;DHT22;9714;51.208;4.242;2023-04-01T10:42:39;11.60;99.90
19164;DHT22;9714;51.208;4.242;2023-04-01T10:45:48;11.40;99.90
19164;DHT22;9714;51.208;4.242;2023-04-01T10:48:43;11.50;99.90
19164;DHT22;9714;51.208;4.242;2023-04-01T10:51:18;11.50;99.90
19164;DHT22;9714;51.208;4.242;2023-04-01T10:54:26;11.50;99.90
19164;DHT22;9714;51.208;4.242;2023-04-01T10:56:59;11.60;99.90
19164;DHT22;9714;51.208;4.242;2023-04-01T11:02:56;11.60;99.90
19164;DHT22;9714;51.208;4.242;2023-04-01T11:09:40;11.80;99.90
19164;DHT22;9714;51.208;4.242;2023-04-01T11:12:54;11.90;99.90
19164;DHT22;9714;51.208;4.242;2023-04-01T11:15:50;11.90;99.90
19164;DHT22;9714;51.208;4.242;2023-04-01T11:22:08;11.70;99.90
19164;DHT22;9714;51.208;4.242;2023-04-01T11:24:57;11.50;99.90
19164;DHT22;9714;51.208;4.242;2023-04-01T11:27:49;11.40;99.90
19164;DHT22;9714;51.208;4.242;2023-04-01T11:30:34;11.50;99.90
19164;DHT22;9714;51.208;4.242;2023-04-01T11:33:10;11.50;99.90
19164;DHT22;9714;51.208;4.242;2023-04-01T11:38:51;11.70;99.90
19164;DHT22;9714;51.208;4.242;2023-04-01T11:41:28;11.60;99.90
19164;DHT22;9714;51.208;4.242;2023-04-01T11:44:11;11.80;99.90
19164;DHT22;9714;51.208;4.242;2023-04-01T11:46:50;11.80;99.90
19164;DHT22;9714;51.208;4.242;2023-04-01T11:49:42;12.10;99.90
19164;DHT22;9714;51.208;4.242;2023-04-01T11:52:25;11.90;99.90
19164;DHT22;9714;51.208;4.242;2023-04-01T11:55:06;12.00;99.90
19164;DHT22;9714;51.208;4.242;2023-04-01T11:57:49;11.90;99.90
19164;DHT22;9714;51.208;4.242;2023-04-01T12:00:41;11.90;99.90
19164;DHT22;9714;51.208;4.242;2023-04-01T12:03:27;11.90;99.90
19164;DHT22;9714;51.208;4.242;2023-04-01T12:06:02;12.00;99.90
19164;DHT22;9714;51.208;4.242;2023-04-01T12:08:39;11.90;99.90
19164;DHT22;9714;51.208;4.242;2023-04-01T12:11:17;11.90;99.90
19164;DHT22;9714;51.208;4.242;2023-04-01T12:13:53;11.90;99.90
19164;DHT22;9714;51.208;4.242;2023-04-01T12:16:42;12.00;99.90
19164;DHT22;9714;51.208;4.242;2023-04-01T12:19:17;12.10;99.90
19164;DHT22;9714;51.208;4.242;2023-04-01T12:21:56;12.30;99.90
19164;DHT22;9714;51.208;4.242;2023-04-01T12:25:00;12.40;99.90
19164;DHT22;9714;51.208;4.242;2023-04-01T12:27:51;12.50;99.90
19164;DHT22;9714;51.208;4.242;2023-04-01T12:30:30;12.30;99.90
19164;DHT22;9714;51.208;4.242;2023-04-01T12:33:12;12.30;99.90
19164;DHT22;9714;51.208;4.242;2023-04-01T12:35:52;12.30;99.90
19164;DHT22;9714;51.208;4.242;2023-04-01T12:38:28;12.40;99.90
19164;DHT22;9714;51.208;4.242;2023-04-01T12:41:13;12.30;99.90
19164;DHT22;9714;51.208;4.242;2023-04-01T12:47:00;12.40;99.90
19164;DHT22;9714;51.208;4.242;2023-04-01T12:49:44;12.10;99.90
19164;DHT22;9714;51.208;4.242;2023-04-01T12:52:19;12.00;99.90
19164;DHT22;9714;51.208;4.242;2023-04-01T12:55:21;12.00;99.90
19164;DHT22;9714;51.208;4.242;2023-04-01T13:01:26;11.90;99.90
19164;DHT22;9714;51.208;4.242;2023-04-01T13:07:15;11.70;99.90
19164;DHT22;9714;51.208;4.242;2023-04-01T13:12:19;11.90;99.90
19164;DHT22;9714;51.208;4.242;2023-04-01T13:15:24;12.10;99.90
19164;DHT22;9714;51.208;4.242;2023-04-01T13:17:58;12.00;99.90
19164;DHT22;9714;51.208;4.242;2023-04-01T13:20:38;12.00;99.90
19164;DHT22;9714;51.208;4.242;2023-04-01T13:23:14;12.00;99.90
19164;DHT22;9714;51.208;4.242;2023-04-01T13:25:47;12.00;99.90
19164;DHT22;9714;51.208;4.242;2023-04-01T13:28:22;12.00;99.90
19164;DHT22;9714;51.208;4.242;2023-04-01T13:30:58;12.20;99.90
19164;DHT22;9714;51.208;4.242;2023-04-01T13:33:32;12.40;99.90
19164;DHT22;9714;51.208;4.242;2023-04-01T13:36:19;12.50;99.90
19164;DHT22;9714;51.208;4.242;2023-04-01T13:39:14;12.40;99.90
19164;DHT22;9714;51.208;4.242;2023-04-01T13:41:53;12.30;99.90
19164;DHT22;9714;51.208;4.242;2023-04-01T13:44:30;12.20;99.90
19164;DHT22;9714;51.208;4.242;2023-04-01T13:47:10;12.30;99.90
19164;DHT22;9714;51.208;4.242;2023-04-01T13:49:59;12.50;99.90
19164;DHT22;9714;51.208;4.242;2023-04-01T13:55:54;12.90;99.90
19164;DHT22;9714;51.208;4.242;2023-04-01T13:58:39;13.10;99.90
19164;DHT22;9714;51.208;4.242;2023-04-01T14:01:15;13.30;99.90
19164;DHT22;9714;51.208;4.242;2023-04-01T14:04:17;13.50;99.90
19164;DHT22;9714;51.208;4.242;2023-04-01T14:06:57;13.10;99.90
19164;DHT22;9714;51.208;4.242;2023-04-01T14:09:43;12.90;99.90
19164;DHT22;9714;51.208;4.242;2023-04-01T14:12:19;12.90;99.90
19164;DHT22;9714;51.208;4.242;2023-04-01T14:15:07;12.80;99.90
19164;DHT22;9714;51.208;4.242;2023-04-01T14:17:56;12.60;99.90
19164;DHT22;9714;51.208;4.242;2023-04-01T14:20:37;12.40;99.90
19164;DHT22;9714;51.208;4.242;2023-04-01T14:23:17;12.30;99.90
19164;DHT22;9714;51.208;4.242;2023-04-01T14:29:24;12.40;99.90
19164;DHT22;9714;51.208;4.242;2023-04-01T14:32:05;12.30;99.90
19164;DHT22;9714;51.208;4.242;2023-04-01T14:34:51;12.30;99.90
19164;DHT22;9714;51.208;4.242;2023-04-01T14:37:35;12.30;99.90
19164;DHT22;9714;51.208;4.242;2023-04-01T14:40:22;12.40;99.90
19164;DHT22;9714;51.208;4.242;2023-04-01T14:43:06;12.40;99.90
19164;DHT22;9714;51.208;4.242;2023-04-01T14:45:51;12.20;99.90
19164;DHT22;9714;51.208;4.242;2023-04-01T14:48:28;12.00;99.90
19164;DHT22;9714;51.208;4.242;2023-04-01T14:51:04;12.10;99.90
19164;DHT22;9714;51.208;4.242;2023-04-01T14:53:38;12.10;99.90
19164;DHT22;9714;51.208;4.242;2023-04-01T14:56:11;11.90;99.90
19164;DHT22;9714;51.208;4.242;2023-04-01T14:58:43;11.80;99.90
19164;DHT22;9714;51.208;4.242;2023-04-01T15:01:32;11.80;99.90
19164;DHT22;9714;51.208;4.242;2023-04-01T15:04:22;11.90;99.90
19164;DHT22;9714;51.208;4.242;2023-04-01T15:07:02;11.90;99.90
19164;DHT22;9714;51.208;4.242;2023-04-01T15:09:40;12.00;99.90
19164;DHT22;9714;51.208;4.242;2023-04-01T15:12:20;11.80;99.90
19164;DHT22;9714;51.208;4.242;2023-04-01T15:15:03;11.90;99.90
19164;DHT22;9714;51.208;4.242;2023-04-01T15:17:58;11.70;99.90
19164;DHT22;9714;51.208;4.242;2023-04-01T15:21:01;11.80;99.90
19164;DHT22;9714;51.208;4.242;2023-04-01T15:23:43;11.70;99.90
19164;DHT22;9714;51.208;4.242;2023-04-01T15:29:12;11.60;99.90
19164;DHT22;9714;51.208;4.242;2023-04-01T15:31:47;11.70;99.90
19164;DHT22;9714;51.208;4.242;2023-04-01T15:34:29;11.60;99.90
19164;DHT22;9714;51.208;4.242;2023-04-01T15:37:04;11.70;99.90
19164;DHT22;9714;51.208;4.242;2023-04-01T15:39:49;11.60;99.90
19164;DHT22;9714;51.208;4.242;2023-04-01T15:42:28;11.50;99.90
19164;DHT22;9714;51.208;4.242;2023-04-01T15:45:18;11.50;99.90
19164;DHT22;9714;51.208;4.242;2023-04-01T15:48:04;11.50;99.90
19164;DHT22;9714;51.208;4.242;2023-04-01T15:50:52;11.50;99.90
19164;DHT22;9714;51.208;4.242;2023-04-01T15:53:35;11.50;99.90
19164;DHT22;9714;51.208;4.242;2023-04-01T15:56:23;11.30;99.90
19164;DHT22;9714;51.208;4.242;2023-04-01T15:59:00;11.30;99.90
19164;DHT22;9714;51.208;4.242;2023-04-01T16:01:36;11.40;99.90
19164;DHT22;9714;51.208;4.242;2023-04-01T16:04:31;11.50;99.90
19164;DHT22;9714;51.208;4.242;2023-04-01T16:07:10;11.50;99.90
19164;DHT22;9714;51.208;4.242;2023-04-01T16:09:49;11.70;99.90
19164;DHT22;9714;51.208;4.242;2023-04-01T16:12:33;11.60;99.90
19164;DHT22;9714;51.208;4.242;2023-04-01T16:15:17;11.60;99.90
19164;DHT22;9714;51.208;4.242;2023-04-01T16:18:10;11.40;99.90
19164;DHT22;9714;51.208;4.242;2023-04-01T16:20:57;11.30;99.90
19164;DHT22;9714;51.208;4.242;2023-04-01T16:23:35;11.50;99.90
19164;DHT22;9714;51.208;4.242;2023-04-01T16:26:09;11.60;99.90
19164;DHT22;9714;51.208;4.242;2023-04-01T16:28:49;11.60;99.90
19164;DHT22;9714;51.208;4.242;2023-04-01T16:31:31;11.40;99.90
19164;DHT22;9714;51.208;4.242;2023-04-01T16:34:02;11.60;99.90
19164;DHT22;9714;51.208;4.242;2023-04-01T16:36:36;11.60;99.90
19164;DHT22;9714;51.208;4.242;2023-04-01T16:42:20;11.50;99.90
19164;DHT22;9714;51.208;4.242;2023-04-01T16:44:55;11.40;99.90
19164;DHT22;9714;51.208;4.242;2023-04-01T16:47:29;11.60;99.90
19164;DHT22;9714;51.208;4.242;2023-04-01T16:50:00;11.60;99.90
19164;DHT22;9714;51.208;4.242;2023-04-01T16:53:08;11.60;99.90
19164;DHT22;9714;51.208;4.242;2023-04-01T16:55:49;11.40;99.90
19164;DHT22;9714;51.208;4.242;2023-04-01T16:58:33;11.40;99.90
19164;DHT22;9714;51.208;4.242;2023-04-01T17:01:05;11.60;99.90
19164;DHT22;9714;51.208;4.242;2023-04-01T17:03:38;11.50;99.90
19164;DHT22;9714;51.208;4.242;2023-04-01T17:06:23;11.60;99.90
19164;DHT22;9714;51.208;4.242;2023-04-01T17:09:02;11.50;99.90
19164;DHT22;9714;51.208;4.242;2023-04-01T17:11:37;11.20;99.90
19164;DHT22;9714;51.208;4.242;2023-04-01T17:14:15;11.20;99.90
19164;DHT22;9714;51.208;4.242;2023-04-01T17:17:05;11.60;99.90
19164;DHT22;9714;51.208;4.242;2023-04-01T17:19:46;11.40;99.90
19164;DHT22;9714;51.208;4.242;2023-04-01T17:22:25;11.30;99.90
19164;DHT22;9714;51.208;4.242;2023-04-01T17:25:07;11.20;99.90
19164;DHT22;9714;51.208;4.242;2023-04-01T17:27:44;11.30;99.90
19164;DHT22;9714;51.208;4.242;2023-04-01T17:30:28;11.30;99.90
19164;DHT22;9714;51.208;4.242;2023-04-01T17:35:56;10.90;99.90
19164;DHT22;9714;51.208;4.242;2023-04-01T17:38:40;10.90;99.90
19164;DHT22;9714;51.208;4.242;2023-04-01T17:41:19;10.90;99.90
19164;DHT22;9714;51.208;4.242;2023-04-01T17:43:52;10.80;99.90
19164;DHT22;9714;51.208;4.242;2023-04-01T17:46:31;10.70;99.90
19164;DHT22;9714;51.208;4.242;2023-04-01T17:49:13;10.80;99.90
19164;DHT22;9714;51.208;4.242;2023-04-01T17:51:52;10.90;99.90
19164;DHT22;9714;51.208;4.242;2023-04-01T17:54:24;10.70;99.90
19164;DHT22;9714;51.208;4.242;2023-04-01T17:57:05;10.70;99.90
19164;DHT22;9714;51.208;4.242;2023-04-01T17:59:37;10.80;99.90
19164;DHT22;9714;51.208;4.242;2023-04-01T18:02:16;10.90;99.90
19164;DHT22;9714;51.208;4.242;2023-04-01T18:05:05;10.80;99.90
19164;DHT22;9714;51.208;4.242;2023-04-01T18:07:55;10.70;99.90
19164;DHT22;9714;51.208;4.242;2023-04-01T18:10:29;10.70;99.90
19164;DHT22;9714;51.208;4.242;2023-04-01T18:13:32;10.70;99.90
19164;DHT22;9714;51.208;4.242;2023-04-01T18:16:13;10.70;99.90
19164;DHT22;9714;51.208;4.242;2023-04-01T18:18:50;10.60;99.90
19164;DHT22;9714;51.208;4.242;2023-04-01T18:21:30;10.70;99.90
19164;DHT22;9714;51.208;4.242;2023-04-01T18:24:10;10.80;99.90
19164;DHT22;9714;51.208;4.242;2023-04-01T18:26:40;10.80;99.90
19164;DHT22;9714;51.208;4.242;2023-04-01T18:29:14;10.70;99.90
19164;DHT22;9714;51.208;4.242;2023-04-01T18:31:47;10.60;99.90